sensor_id;sensor_type;location;lat;lon;timestamp;pressure;altitude;pressure_sealevel;temperature;humidity
78741;BME280;68062;48.726;9.370;2023-07-02T00:02:17;98177.00;;;15.59;100.00
78741;BME280;68062;48.726;9.370;2023-07-02T00:04:44;98179.69;;;15.56;100.00
78741;BME280;68062;48.726;9.370;2023-07-02T00:07:11;98176.47;;;15.77;100.00
78741;BME280;68062;48.726;9.370;2023-07-02T00:09:40;98176.66;;;15.97;100.00
78741;BME280;68062;48.726;9.370;2023-07-02T00:12:08;98170.06;;;16.14;100.00
78741;BME280;68062;48.726;9.370;2023-07-02T00:14:35;98168.28;;;16.16;100.00
78741;BME280;68062;48.726;9.370;2023-07-02T00:17:02;98172.63;;;16.15;100.00
78741;BME280;68062;48.726;9.370;2023-07-02T00:19:29;98176.16;;;16.13;100.00
78741;BME280;68062;48.726;9.370;2023-07-02T00:21:56;98180.41;;;16.15;100.00
78741;BME280;68062;48.726;9.370;2023-07-02T00:24:23;98181.25;;;16.16;100.00
78741;BME280;68062;48.726;9.370;2023-07-02T00:26:50;98180.13;;;15.98;100.00
78741;BME280;68062;48.726;9.370;2023-07-02T00:29:18;98186.53;;;16.13;100.00
78741;BME280;68062;48.726;9.370;2023-07-02T00:31:45;98190.88;;;16.12;100.00
78741;BME280;68062;48.726;9.370;2023-07-02T00:34:12;98193.63;;;15.81;100.00
78741;BME280;68062;48.726;9.370;2023-07-02T00:36:40;98183.19;;;15.55;100.00
78741;BME280;68062;48.726;9.370;2023-07-02T00:39:07;98189.97;;;15.31;100.00
78741;BME280;68062;48.726;9.370;2023-07-02T00:41:34;98185.19;;;15.17;100.00
78741;BME280;68062;48.726;9.370;2023-07-02T00:44:00;98178.84;;;14.97;100.00
78741;BME280;68062;48.726;9.370;2023-07-02T00:46:29;98177.56;;;14.82;100.00
78741;BME280;68062;48.726;9.370;2023-07-02T00:48:58;98180.72;;;14.94;100.00
78741;BME280;68062;48.726;9.370;2023-07-02T00:51:27;98186.34;;;15.07;100.00
78741;BME280;68062;48.726;9.370;2023-07-02T00:53:55;98191.50;;;15.38;100.00
78741;BME280;68062;48.726;9.370;2023-07-02T00:56:22;98186.13;;;15.44;100.00
78741;BME280;68062;48.726;9.370;2023-07-02T00:58:51;98199.69;;;15.53;100.00
78741;BME280;68062;48.726;9.370;2023-07-02T01:01:19;98198.72;;;15.55;100.00
78741;BME280;68062;48.726;9.370;2023-07-02T01:03:57;98197.47;;;15.40;100.00
78741;BME280;68062;48.726;9.370;2023-07-02T01:06:25;98191.25;;;15.18;100.00
78741;BME280;68062;48.726;9.370;2023-07-02T01:08:54;98197.22;;;15.20;100.00
78741;BME280;68062;48.726;9.370;2023-07-02T01:11:23;98198.19;;;15.15;100.00
78741;BME280;68062;48.726;9.370;2023-07-02T01:13:53;98201.16;;;15.32;100.00
78741;BME280;68062;48.726;9.370;2023-07-02T01:16:22;98197.41;;;15.42;100.00
78741;BME280;68062;48.726;9.370;2023-07-02T01:18:50;98193.81;;;15.46;100.00
78741;BME280;68062;48.726;9.370;2023-07-02T01:21:22;98199.06;;;15.44;100.00
78741;BME280;68062;48.726;9.370;2023-07-02T01:23:50;98187.91;;;15.42;100.00
78741;BME280;68062;48.726;9.370;2023-07-02T01:26:17;98202.50;;;15.45;100.00
78741;BME280;68062;48.726;9.370;2023-07-02T01:28:44;98198.50;;;15.35;100.00
78741;BME280;68062;48.726;9.370;2023-07-02T01:31:11;98190.28;;;15.20;100.00
78741;BME280;68062;48.726;9.370;2023-07-02T01:33:37;98194.25;;;15.60;100.00
78741;BME280;68062;48.726;9.370;2023-07-02T01:36:05;98192.66;;;15.56;100.00
78741;BME280;68062;48.726;9.370;2023-07-02T01:38:33;98206.50;;;15.27;100.00
78741;BME280;68062;48.726;9.370;2023-07-02T01:40:59;98210.25;;;15.17;100.00
78741;BME280;68062;48.726;9.370;2023-07-02T01:43:26;98207.25;;;15.00;100.00
78741;BME280;68062;48.726;9.370;2023-07-02T01:45:53;98201.44;;;15.22;100.00
78741;BME280;68062;48.726;9.370;2023-07-02T01:48:21;98197.66;;;15.04;100.00
78741;BME280;68062;48.726;9.370;2023-07-02T01:50:48;98187.84;;;14.85;100.00
78741;BME280;68062;48.726;9.370;2023-07-02T01:53:15;98182.50;;;15.20;100.00
78741;BME280;68062;48.726;9.370;2023-07-02T01:55:43;98180.63;;;15.25;100.00
78741;BME280;68062;48.726;9.370;2023-07-02T01:58:09;98193.47;;;15.30;100.00
78741;BME280;68062;48.726;9.370;2023-07-02T02:00:36;98193.28;;;15.06;100.00
78741;BME280;68062;48.726;9.370;2023-07-02T02:03:04;98157.25;;;14.98;100.00
78741;BME280;68062;48.726;9.370;2023-07-02T02:05:31;98199.41;;;15.04;100.00
78741;BME280;68062;48.726;9.370;2023-07-02T02:07:58;98207.22;;;14.70;100.00
78741;BME280;68062;48.726;9.370;2023-07-02T02:10:25;98204.28;;;14.51;100.00
78741;BME280;68062;48.726;9.370;2023-07-02T02:12:53;98211.31;;;14.46;100.00
78741;BME280;68062;48.726;9.370;2023-07-02T02:15:20;98214.41;;;14.59;100.00
78741;BME280;68062;48.726;9.370;2023-07-02T02:17:46;98207.34;;;14.66;100.00
78741;BME280;68062;48.726;9.370;2023-07-02T02:20:13;98199.44;;;14.72;100.00
78741;BME280;68062;48.726;9.370;2023-07-02T02:22:40;98207.28;;;14.67;100.00
78741;BME280;68062;48.726;9.370;2023-07-02T02:25:07;98199.75;;;14.91;100.00
78741;BME280;68062;48.726;9.370;2023-07-02T02:27:34;98204.44;;;14.78;100.00
78741;BME280;68062;48.726;9.370;2023-07-02T02:30:03;98202.94;;;14.69;100.00
78741;BME280;68062;48.726;9.370;2023-07-02T02:32:33;98198.31;;;14.81;100.00
78741;BME280;68062;48.726;9.370;2023-07-02T02:35:00;98198.28;;;14.82;100.00
78741;BME280;68062;48.726;9.370;2023-07-02T02:37:26;98201.69;;;14.84;100.00
78741;BME280;68062;48.726;9.370;2023-07-02T02:39:54;98203.50;;;14.81;100.00
78741;BME280;68062;48.726;9.370;2023-07-02T02:42:22;98199.53;;;14.99;100.00
78741;BME280;68062;48.726;9.370;2023-07-02T02:44:50;98200.56;;;15.23;100.00
78741;BME280;68062;48.726;9.370;2023-07-02T02:47:18;98195.16;;;15.31;100.00
78741;BME280;68062;48.726;9.370;2023-07-02T02:49:44;98194.06;;;15.38;100.00
78741;BME280;68062;48.726;9.370;2023-07-02T02:52:11;98201.16;;;15.32;100.00
78741;BME280;68062;48.726;9.370;2023-07-02T02:54:39;98200.34;;;15.31;100.00
78741;BME280;68062;48.726;9.370;2023-07-02T02:57:06;98197.88;;;15.26;100.00
78741;BME280;68062;48.726;9.370;2023-07-02T02:59:33;98193.69;;;15.51;100.00
78741;BME280;68062;48.726;9.370;2023-07-02T03:02:00;98193.44;;;15.58;100.00
78741;BME280;68062;48.726;9.370;2023-07-02T03:04:28;98200.09;;;15.67;100.00
78741;BME280;68062;48.726;9.370;2023-07-02T03:06:55;98164.63;;;15.41;100.00
78741;BME280;68062;48.726;9.370;2023-07-02T03:09:22;98200.41;;;15.56;100.00
78741;BME280;68062;48.726;9.370;2023-07-02T03:11:48;98212.72;;;15.50;100.00
78741;BME280;68062;48.726;9.370;2023-07-02T03:14:15;98217.47;;;15.35;100.00
78741;BME280;68062;48.726;9.370;2023-07-02T03:16:42;98210.78;;;15.56;100.00
78741;BME280;68062;48.726;9.370;2023-07-02T03:19:10;98213.84;;;15.41;100.00
78741;BME280;68062;48.726;9.370;2023-07-02T03:21:42;98217.97;;;15.18;100.00
78741;BME280;68062;48.726;9.370;2023-07-02T03:24:09;98216.25;;;15.19;100.00
78741;BME280;68062;48.726;9.370;2023-07-02T03:26:37;98210.53;;;15.07;100.00
78741;BME280;68062;48.726;9.370;2023-07-02T03:29:04;98230.13;;;15.16;100.00
78741;BME280;68062;48.726;9.370;2023-07-02T03:31:30;98229.84;;;15.25;100.00
78741;BME280;68062;48.726;9.370;2023-07-02T03:33:57;98226.69;;;15.15;100.00
78741;BME280;68062;48.726;9.370;2023-07-02T03:36:23;98238.78;;;15.15;100.00
78741;BME280;68062;48.726;9.370;2023-07-02T03:38:52;98238.69;;;15.18;100.00
78741;BME280;68062;48.726;9.370;2023-07-02T03:41:18;98249.03;;;15.20;100.00
78741;BME280;68062;48.726;9.370;2023-07-02T03:43:45;98252.78;;;15.08;100.00
78741;BME280;68062;48.726;9.370;2023-07-02T03:46:12;98257.00;;;15.12;100.00
78741;BME280;68062;48.726;9.370;2023-07-02T03:48:39;98262.94;;;15.15;100.00
78741;BME280;68062;48.726;9.370;2023-07-02T03:51:06;98264.03;;;15.07;100.00
78741;BME280;68062;48.726;9.370;2023-07-02T03:53:33;98261.13;;;14.88;100.00
78741;BME280;68062;48.726;9.370;2023-07-02T03:56:01;98267.19;;;14.86;100.00
78741;BME280;68062;48.726;9.370;2023-07-02T03:58:28;98279.19;;;14.89;100.00
78741;BME280;68062;48.726;9.370;2023-07-02T04:00:54;98276.94;;;14.77;100.00
78741;BME280;68062;48.726;9.370;2023-07-02T04:03:21;98284.69;;;14.78;100.00
78741;BME280;68062;48.726;9.370;2023-07-02T04:05:47;98287.25;;;14.78;100.00
78741;BME280;68062;48.726;9.370;2023-07-02T04:08:14;98289.34;;;14.62;100.00
78741;BME280;68062;48.726;9.370;2023-07-02T04:10:43;98299.75;;;14.61;100.00
78741;BME280;68062;48.726;9.370;2023-07-02T04:13:12;98298.34;;;14.49;100.00
78741;BME280;68062;48.726;9.370;2023-07-02T04:15:38;98304.94;;;14.61;100.00
78741;BME280;68062;48.726;9.370;2023-07-02T04:18:05;98308.44;;;14.58;100.00
78741;BME280;68062;48.726;9.370;2023-07-02T04:20:32;98308.50;;;14.56;100.00
78741;BME280;68062;48.726;9.370;2023-07-02T04:22:59;98311.16;;;14.53;100.00
78741;BME280;68062;48.726;9.370;2023-07-02T04:25:26;98310.34;;;14.51;100.00
78741;BME280;68062;48.726;9.370;2023-07-02T04:27:52;98322.03;;;14.66;100.00
78741;BME280;68062;48.726;9.370;2023-07-02T04:30:23;98321.97;;;14.69;100.00
78741;BME280;68062;48.726;9.370;2023-07-02T04:32:50;98323.00;;;14.62;100.00
78741;BME280;68062;48.726;9.370;2023-07-02T04:35:18;98328.44;;;14.53;100.00
78741;BME280;68062;48.726;9.370;2023-07-02T04:37:44;98325.09;;;14.48;100.00
78741;BME280;68062;48.726;9.370;2023-07-02T04:40:11;98325.06;;;14.49;100.00
78741;BME280;68062;48.726;9.370;2023-07-02T04:42:42;98330.13;;;14.54;100.00
78741;BME280;68062;48.726;9.370;2023-07-02T04:45:13;98331.13;;;14.48;100.00
78741;BME280;68062;48.726;9.370;2023-07-02T04:47:42;98331.13;;;14.48;100.00
78741;BME280;68062;48.726;9.370;2023-07-02T04:50:09;98332.66;;;14.57;100.00
78741;BME280;68062;48.726;9.370;2023-07-02T04:52:35;98326.44;;;14.63;100.00
78741;BME280;68062;48.726;9.370;2023-07-02T04:55:02;98328.91;;;14.67;100.00
78741;BME280;68062;48.726;9.370;2023-07-02T04:57:29;98335.50;;;14.81;100.00
78741;BME280;68062;48.726;9.370;2023-07-02T04:59:56;98335.56;;;15.11;100.00
78741;BME280;68062;48.726;9.370;2023-07-02T05:02:23;98334.22;;;15.29;100.00
78741;BME280;68062;48.726;9.370;2023-07-02T05:04:52;98340.91;;;15.68;100.00
78741;BME280;68062;48.726;9.370;2023-07-02T05:07:19;98345.47;;;15.89;100.00
78741;BME280;68062;48.726;9.370;2023-07-02T05:09:45;98352.03;;;16.01;100.00
78741;BME280;68062;48.726;9.370;2023-07-02T05:12:13;98345.66;;;16.12;100.00
78741;BME280;68062;48.726;9.370;2023-07-02T05:14:41;98350.66;;;16.18;100.00
78741;BME280;68062;48.726;9.370;2023-07-02T05:17:08;98354.75;;;16.25;100.00
78741;BME280;68062;48.726;9.370;2023-07-02T05:19:34;98358.75;;;16.36;100.00
78741;BME280;68062;48.726;9.370;2023-07-02T05:22:03;98362.25;;;16.35;100.00
78741;BME280;68062;48.726;9.370;2023-07-02T05:24:29;98368.91;;;16.43;100.00
78741;BME280;68062;48.726;9.370;2023-07-02T05:26:56;98375.00;;;16.42;100.00
78741;BME280;68062;48.726;9.370;2023-07-02T05:29:23;98375.19;;;16.36;100.00
78741;BME280;68062;48.726;9.370;2023-07-02T05:31:49;98377.00;;;16.32;100.00
78741;BME280;68062;48.726;9.370;2023-07-02T05:34:16;98339.19;;;16.25;100.00
78741;BME280;68062;48.726;9.370;2023-07-02T05:36:43;98371.69;;;16.64;100.00
78741;BME280;68062;48.726;9.370;2023-07-02T05:39:11;98368.50;;;16.56;100.00
78741;BME280;68062;48.726;9.370;2023-07-02T05:41:37;98367.31;;;16.66;100.00
78741;BME280;68062;48.726;9.370;2023-07-02T05:44:04;98371.50;;;16.70;100.00
78741;BME280;68062;48.726;9.370;2023-07-02T05:46:30;98378.81;;;16.57;100.00
78741;BME280;68062;48.726;9.370;2023-07-02T05:48:57;98382.41;;;16.53;100.00
78741;BME280;68062;48.726;9.370;2023-07-02T05:51:25;98380.69;;;16.54;100.00
78741;BME280;68062;48.726;9.370;2023-07-02T05:53:52;98378.09;;;16.54;100.00
78741;BME280;68062;48.726;9.370;2023-07-02T05:56:20;98378.00;;;16.57;100.00
78741;BME280;68062;48.726;9.370;2023-07-02T05:58:48;98380.78;;;16.51;100.00
78741;BME280;68062;48.726;9.370;2023-07-02T06:01:14;98374.50;;;16.83;100.00
78741;BME280;68062;48.726;9.370;2023-07-02T06:03:41;98370.56;;;17.24;99.09
78741;BME280;68062;48.726;9.370;2023-07-02T06:06:08;98375.16;;;17.41;97.51
78741;BME280;68062;48.726;9.370;2023-07-02T06:08:36;98367.03;;;17.50;95.75
78741;BME280;68062;48.726;9.370;2023-07-02T06:11:02;98373.63;;;17.35;91.39
78741;BME280;68062;48.726;9.370;2023-07-02T06:13:30;98370.75;;;17.43;89.24
78741;BME280;68062;48.726;9.370;2023-07-02T06:15:57;98367.13;;;17.23;86.20
78741;BME280;68062;48.726;9.370;2023-07-02T06:18:24;98374.94;;;16.98;85.45
78741;BME280;68062;48.726;9.370;2023-07-02T06:20:50;98369.88;;;16.93;84.65
78741;BME280;68062;48.726;9.370;2023-07-02T06:23:17;98373.38;;;16.92;85.44
78741;BME280;68062;48.726;9.370;2023-07-02T06:25:44;98372.41;;;16.95;85.13
78741;BME280;68062;48.726;9.370;2023-07-02T06:28:10;98372.34;;;16.98;84.23
78741;BME280;68062;48.726;9.370;2023-07-02T06:30:38;98364.88;;;16.87;84.91
78741;BME280;68062;48.726;9.370;2023-07-02T06:33:05;98355.09;;;16.95;82.97
78741;BME280;68062;48.726;9.370;2023-07-02T06:35:31;98373.50;;;17.14;84.12
78741;BME280;68062;48.726;9.370;2023-07-02T06:37:58;98366.16;;;17.26;82.92
78741;BME280;68062;48.726;9.370;2023-07-02T06:40:25;98369.72;;;17.23;80.88
78741;BME280;68062;48.726;9.370;2023-07-02T06:42:51;98370.25;;;17.33;82.24
78741;BME280;68062;48.726;9.370;2023-07-02T06:45:18;98371.44;;;17.72;80.13
78741;BME280;68062;48.726;9.370;2023-07-02T06:47:46;98366.78;;;18.04;78.66
78741;BME280;68062;48.726;9.370;2023-07-02T06:50:13;98375.47;;;18.04;77.86
78741;BME280;68062;48.726;9.370;2023-07-02T06:52:39;98368.84;;;18.40;74.77
78741;BME280;68062;48.726;9.370;2023-07-02T06:55:07;98376.59;;;18.19;74.23
78741;BME280;68062;48.726;9.370;2023-07-02T06:57:34;98371.44;;;17.72;75.98
78741;BME280;68062;48.726;9.370;2023-07-02T07:00:00;98377.16;;;17.82;76.49
78741;BME280;68062;48.726;9.370;2023-07-02T07:02:29;98380.03;;;17.50;74.77
78741;BME280;68062;48.726;9.370;2023-07-02T07:04:57;98380.44;;;17.87;77.61
78741;BME280;68062;48.726;9.370;2023-07-02T07:07:23;98385.28;;;17.96;74.94
78741;BME280;68062;48.726;9.370;2023-07-02T07:09:50;98382.47;;;18.02;75.16
78741;BME280;68062;48.726;9.370;2023-07-02T07:12:16;98380.63;;;18.28;75.75
78741;BME280;68062;48.726;9.370;2023-07-02T07:14:43;98395.13;;;18.34;72.83
78741;BME280;68062;48.726;9.370;2023-07-02T07:17:09;98390.47;;;18.20;71.56
78741;BME280;68062;48.726;9.370;2023-07-02T07:19:36;98387.09;;;17.94;73.42
78741;BME280;68062;48.726;9.370;2023-07-02T07:22:04;98379.22;;;18.19;72.43
78741;BME280;68062;48.726;9.370;2023-07-02T07:24:30;98379.88;;;18.02;73.82
78741;BME280;68062;48.726;9.370;2023-07-02T07:26:57;98377.97;;;19.14;69.18
78741;BME280;68062;48.726;9.370;2023-07-02T07:29:24;98376.28;;;20.29;64.65
78741;BME280;68062;48.726;9.370;2023-07-02T07:31:52;98381.50;;;20.66;64.71
78741;BME280;68062;48.726;9.370;2023-07-02T07:34:19;98372.94;;;19.51;66.60
78741;BME280;68062;48.726;9.370;2023-07-02T07:36:45;98384.34;;;19.87;63.93
78741;BME280;68062;48.726;9.370;2023-07-02T07:39:13;98377.94;;;18.93;67.37
78741;BME280;68062;48.726;9.370;2023-07-02T07:41:40;98381.97;;;18.80;68.63
78741;BME280;68062;48.726;9.370;2023-07-02T07:44:07;98367.78;;;19.49;65.10
78741;BME280;68062;48.726;9.370;2023-07-02T07:46:33;98373.22;;;18.82;67.97
78741;BME280;68062;48.726;9.370;2023-07-02T07:49:00;98380.16;;;18.82;67.26
78741;BME280;68062;48.726;9.370;2023-07-02T07:51:27;98382.50;;;18.88;67.89
78741;BME280;68062;48.726;9.370;2023-07-02T07:53:54;98371.53;;;18.81;66.92
78741;BME280;68062;48.726;9.370;2023-07-02T07:56:22;98382.25;;;18.53;68.64
78741;BME280;68062;48.726;9.370;2023-07-02T07:58:49;98382.53;;;18.45;67.96
78741;BME280;68062;48.726;9.370;2023-07-02T08:01:16;98380.34;;;19.00;66.23
78741;BME280;68062;48.726;9.370;2023-07-02T08:03:42;98378.50;;;19.02;64.62
78741;BME280;68062;48.726;9.370;2023-07-02T08:06:10;98376.75;;;19.02;64.82
78741;BME280;68062;48.726;9.370;2023-07-02T08:08:36;98380.66;;;19.33;66.36
78741;BME280;68062;48.726;9.370;2023-07-02T08:11:03;98377.97;;;19.35;64.40
78741;BME280;68062;48.726;9.370;2023-07-02T08:13:30;98377.19;;;19.12;65.14
78741;BME280;68062;48.726;9.370;2023-07-02T08:15:57;98373.63;;;19.35;64.02
78741;BME280;68062;48.726;9.370;2023-07-02T08:18:23;98375.03;;;19.43;62.70
78741;BME280;68062;48.726;9.370;2023-07-02T08:20:50;98369.97;;;19.39;61.36
78741;BME280;68062;48.726;9.370;2023-07-02T08:23:16;98369.19;;;19.37;62.45
78741;BME280;68062;48.726;9.370;2023-07-02T08:25:43;98374.69;;;19.89;61.99
78741;BME280;68062;48.726;9.370;2023-07-02T08:28:09;98379.00;;;20.28;59.97
78741;BME280;68062;48.726;9.370;2023-07-02T08:30:37;98388.03;;;19.63;61.69
78741;BME280;68062;48.726;9.370;2023-07-02T08:33:04;98383.69;;;19.43;62.17
78741;BME280;68062;48.726;9.370;2023-07-02T08:35:30;98383.66;;;19.83;60.40
78741;BME280;68062;48.726;9.370;2023-07-02T08:37:57;98383.53;;;20.42;58.69
78741;BME280;68062;48.726;9.370;2023-07-02T08:40:23;98378.63;;;21.41;55.57
78741;BME280;68062;48.726;9.370;2023-07-02T08:42:50;98349.06;;;21.73;54.27
78741;BME280;68062;48.726;9.370;2023-07-02T08:45:17;98387.56;;;21.37;54.34
78741;BME280;68062;48.726;9.370;2023-07-02T08:47:45;98379.97;;;21.66;53.75
78741;BME280;68062;48.726;9.370;2023-07-02T08:50:12;98377.22;;;22.01;53.07
78741;BME280;68062;48.726;9.370;2023-07-02T08:52:39;98343.19;;;21.52;55.58
78741;BME280;68062;48.726;9.370;2023-07-02T08:55:06;98365.88;;;22.63;49.96
78741;BME280;68062;48.726;9.370;2023-07-02T08:57:36;98375.50;;;22.32;51.27
78741;BME280;68062;48.726;9.370;2023-07-02T09:00:08;98378.41;;;21.62;51.86
78741;BME280;68062;48.726;9.370;2023-07-02T09:02:35;98382.34;;;21.53;52.85
78741;BME280;68062;48.726;9.370;2023-07-02T09:05:04;98370.25;;;22.32;52.23
78741;BME280;68062;48.726;9.370;2023-07-02T09:07:31;98369.16;;;21.72;51.65
78741;BME280;68062;48.726;9.370;2023-07-02T09:09:57;98372.47;;;22.24;50.63
78741;BME280;68062;48.726;9.370;2023-07-02T09:12:25;98362.56;;;22.45;49.55
78741;BME280;68062;48.726;9.370;2023-07-02T09:14:55;98361.47;;;21.85;52.51
78741;BME280;68062;48.726;9.370;2023-07-02T09:17:27;98361.75;;;22.59;50.36
78741;BME280;68062;48.726;9.370;2023-07-02T09:19:54;98364.72;;;22.53;51.24
78741;BME280;68062;48.726;9.370;2023-07-02T09:22:22;98361.47;;;21.36;53.29
78741;BME280;68062;48.726;9.370;2023-07-02T09:24:53;98377.81;;;20.53;55.85
78741;BME280;68062;48.726;9.370;2023-07-02T09:27:20;98373.22;;;20.76;56.22
78741;BME280;68062;48.726;9.370;2023-07-02T09:29:50;98370.81;;;20.53;54.90
78741;BME280;68062;48.726;9.370;2023-07-02T09:32:24;98374.16;;;21.10;53.21
78741;BME280;68062;48.726;9.370;2023-07-02T09:34:53;98363.19;;;22.65;49.45
78741;BME280;68062;48.726;9.370;2023-07-02T09:37:20;98364.50;;;22.42;48.39
78741;BME280;68062;48.726;9.370;2023-07-02T09:39:50;98367.03;;;23.04;48.36
78741;BME280;68062;48.726;9.370;2023-07-02T09:42:17;98354.84;;;24.45;46.28
78741;BME280;68062;48.726;9.370;2023-07-02T09:44:45;98348.78;;;24.58;43.27
78741;BME280;68062;48.726;9.370;2023-07-02T09:47:12;98361.38;;;24.52;43.74
78741;BME280;68062;48.726;9.370;2023-07-02T09:49:41;98354.78;;;24.47;44.75
78741;BME280;68062;48.726;9.370;2023-07-02T09:52:10;98344.72;;;24.26;45.79
78741;BME280;68062;48.726;9.370;2023-07-02T09:54:38;98353.09;;;24.99;43.22
78741;BME280;68062;48.726;9.370;2023-07-02T09:57:06;98340.25;;;25.33;42.29
78741;BME280;68062;48.726;9.370;2023-07-02T09:59:33;98328.66;;;23.61;47.27
78741;BME280;68062;48.726;9.370;2023-07-02T10:02:00;98344.91;;;24.63;43.97
78741;BME280;68062;48.726;9.370;2023-07-02T10:04:27;98306.88;;;24.29;44.48
78741;BME280;68062;48.726;9.370;2023-07-02T10:06:55;98340.16;;;23.59;46.00
78741;BME280;68062;48.726;9.370;2023-07-02T10:09:34;98332.47;;;23.56;45.87
78741;BME280;68062;48.726;9.370;2023-07-02T10:12:02;98341.56;;;24.61;43.39
78741;BME280;68062;48.726;9.370;2023-07-02T10:14:41;98325.56;;;26.29;41.03
78741;BME280;68062;48.726;9.370;2023-07-02T10:17:09;98330.38;;;24.85;43.52
78741;BME280;68062;48.726;9.370;2023-07-02T10:19:36;98338.13;;;24.46;42.67
78741;BME280;68062;48.726;9.370;2023-07-02T10:22:03;98330.16;;;23.93;44.45
78741;BME280;68062;48.726;9.370;2023-07-02T10:24:33;98330.44;;;23.88;45.52
78741;BME280;68062;48.726;9.370;2023-07-02T10:27:01;98331.25;;;23.76;45.59
78741;BME280;68062;48.726;9.370;2023-07-02T10:29:28;98326.66;;;22.47;48.51
78741;BME280;68062;48.726;9.370;2023-07-02T10:31:57;98329.72;;;22.54;47.65
78741;BME280;68062;48.726;9.370;2023-07-02T10:34:29;98322.94;;;22.36;48.71
78741;BME280;68062;48.726;9.370;2023-07-02T10:36:56;98319.94;;;23.46;46.64
78741;BME280;68062;48.726;9.370;2023-07-02T10:39:23;98280.56;;;22.88;46.45
78741;BME280;68062;48.726;9.370;2023-07-02T10:41:50;98311.66;;;23.09;45.39
78741;BME280;68062;48.726;9.370;2023-07-02T10:44:16;98332.31;;;24.28;41.08
78741;BME280;68062;48.726;9.370;2023-07-02T10:46:44;98342.38;;;24.49;41.05
78741;BME280;68062;48.726;9.370;2023-07-02T10:49:12;98319.34;;;25.06;40.90
78741;BME280;68062;48.726;9.370;2023-07-02T10:51:39;98305.22;;;24.00;42.44
78741;BME280;68062;48.726;9.370;2023-07-02T10:54:06;98320.00;;;23.01;43.71
78741;BME280;68062;48.726;9.370;2023-07-02T10:56:34;98318.38;;;23.86;42.50
78741;BME280;68062;48.726;9.370;2023-07-02T10:59:01;98326.78;;;24.86;40.68
78741;BME280;68062;48.726;9.370;2023-07-02T11:01:30;98323.75;;;24.12;42.05
78741;BME280;68062;48.726;9.370;2023-07-02T11:03:58;98323.59;;;24.28;42.41
78741;BME280;68062;48.726;9.370;2023-07-02T11:06:26;98319.94;;;23.32;43.17
78741;BME280;68062;48.726;9.370;2023-07-02T11:08:54;98330.56;;;22.85;44.19
78741;BME280;68062;48.726;9.370;2023-07-02T11:11:22;98320.06;;;24.14;41.59
78741;BME280;68062;48.726;9.370;2023-07-02T11:13:50;98313.06;;;24.68;40.25
78741;BME280;68062;48.726;9.370;2023-07-02T11:16:19;98318.84;;;24.60;40.27
78741;BME280;68062;48.726;9.370;2023-07-02T11:18:48;98319.84;;;25.24;39.13
78741;BME280;68062;48.726;9.370;2023-07-02T11:21:15;98314.31;;;26.27;38.67
78741;BME280;68062;48.726;9.370;2023-07-02T11:23:43;98312.41;;;26.77;38.70
78741;BME280;68062;48.726;9.370;2023-07-02T11:26:10;98306.09;;;27.47;35.45
78741;BME280;68062;48.726;9.370;2023-07-02T11:28:48;98317.25;;;26.47;36.91
78741;BME280;68062;48.726;9.370;2023-07-02T11:31:24;98314.47;;;24.06;40.56
78741;BME280;68062;48.726;9.370;2023-07-02T11:33:50;98281.72;;;24.12;40.63
78741;BME280;68062;48.726;9.370;2023-07-02T11:36:20;98304.94;;;23.05;42.25
78741;BME280;68062;48.726;9.370;2023-07-02T11:38:49;98301.84;;;22.98;41.75
78741;BME280;68062;48.726;9.370;2023-07-02T11:41:17;98263.19;;;23.31;41.54
78741;BME280;68062;48.726;9.370;2023-07-02T11:43:43;98300.59;;;24.97;39.81
78741;BME280;68062;48.726;9.370;2023-07-02T11:46:10;98305.59;;;25.26;39.33
78741;BME280;68062;48.726;9.370;2023-07-02T11:48:37;98277.81;;;23.77;41.40
78741;BME280;68062;48.726;9.370;2023-07-02T11:51:03;98296.47;;;23.72;41.33
78741;BME280;68062;48.726;9.370;2023-07-02T11:53:30;98285.53;;;23.65;40.70
78741;BME280;68062;48.726;9.370;2023-07-02T11:55:58;98297.63;;;24.23;39.44
78741;BME280;68062;48.726;9.370;2023-07-02T11:58:25;98284.97;;;24.02;41.02
78741;BME280;68062;48.726;9.370;2023-07-02T12:00:51;98288.03;;;23.67;40.47
78741;BME280;68062;48.726;9.370;2023-07-02T12:03:18;98290.03;;;23.91;40.08
78741;BME280;68062;48.726;9.370;2023-07-02T12:05:45;98300.63;;;23.89;40.33
78741;BME280;68062;48.726;9.370;2023-07-02T12:08:12;98288.56;;;24.67;38.61
78741;BME280;68062;48.726;9.370;2023-07-02T12:10:40;98282.75;;;25.40;37.89
78741;BME280;68062;48.726;9.370;2023-07-02T12:13:08;98289.41;;;24.68;38.57
78741;BME280;68062;48.726;9.370;2023-07-02T12:15:35;98284.16;;;25.70;37.29
78741;BME280;68062;48.726;9.370;2023-07-02T12:18:01;98279.75;;;25.70;37.15
78741;BME280;68062;48.726;9.370;2023-07-02T12:20:28;98278.09;;;26.18;36.39
78741;BME280;68062;48.726;9.370;2023-07-02T12:22:56;98279.97;;;25.92;36.34
78741;BME280;68062;48.726;9.370;2023-07-02T12:25:23;98282.09;;;25.86;35.48
78741;BME280;68062;48.726;9.370;2023-07-02T12:27:49;98275.19;;;25.22;36.93
78741;BME280;68062;48.726;9.370;2023-07-02T12:30:17;98281.41;;;27.26;35.16
78741;BME280;68062;48.726;9.370;2023-07-02T12:32:45;98257.94;;;26.53;35.00
78741;BME280;68062;48.726;9.370;2023-07-02T12:35:14;98240.88;;;27.82;33.28
78741;BME280;68062;48.726;9.370;2023-07-02T12:37:44;98262.69;;;27.84;32.90
78741;BME280;68062;48.726;9.370;2023-07-02T12:40:11;98269.59;;;28.08;32.29
78741;BME280;68062;48.726;9.370;2023-07-02T12:42:38;98278.88;;;28.77;31.23
78741;BME280;68062;48.726;9.370;2023-07-02T12:45:06;98266.94;;;29.55;30.71
78741;BME280;68062;48.726;9.370;2023-07-02T12:47:34;98276.44;;;28.64;32.75
78741;BME280;68062;48.726;9.370;2023-07-02T12:50:00;98257.78;;;26.90;35.35
78741;BME280;68062;48.726;9.370;2023-07-02T12:52:28;98262.91;;;27.37;33.90
78741;BME280;68062;48.726;9.370;2023-07-02T12:54:55;98268.41;;;27.68;33.76
78741;BME280;68062;48.726;9.370;2023-07-02T12:57:21;98267.97;;;28.92;30.96